N412EP NTAA-NTAA
Flight info
| Callsign | N412EP |
|---|---|
| Flight time | N/A |
| Altitude | 2500 |
| Route | VFR |
| Aircraft | B412/L-SDFGRY/C |
Departure
| Time | 2026-04-30 20:26 |
|---|---|
| Airport | Fa'a'ā International Airport (NTAA) |
Arrival
| Time | N/A |
|---|---|
| Airport | Fa'a'ā International Airport (NTAA) |
| Time | Latitude | Longitude | Altitude | Speed | Heading |
|---|---|---|---|---|---|
| 2026-04-30 20:21 | -17.55654 | -149.61325 | 12 ft | 0 kts | 54° |
| 2026-04-30 20:25 | -17.55606 | -149.61241 | 43 ft | 13 kts | 100° |
| 2026-04-30 20:25 | -17.55598 | -149.61192 | 24 ft | 5 kts | 142° |
| 2026-04-30 20:26 | -17.55643 | -149.61165 | 52 ft | 14 kts | 148° |
| 2026-04-30 20:26 | -17.56148 | -149.60550 | 592 ft | 81 kts | 97° |
| 2026-04-30 20:26 | -17.55956 | -149.59940 | 767 ft | 93 kts | 67° |
| 2026-04-30 20:27 | -17.55486 | -149.58668 | 1201 ft | 94 kts | 74° |
| 2026-04-30 20:27 | -17.55168 | -149.57333 | 1656 ft | 94 kts | 81° |
| 2026-04-30 20:28 | -17.55011 | -149.55972 | 2063 ft | 95 kts | 86° |
| 2026-04-30 20:28 | -17.55013 | -149.54591 | 2453 ft | 95 kts | 93° |
| 2026-04-30 20:29 | -17.55180 | -149.53207 | 2844 ft | 96 kts | 98° |
| 2026-04-30 20:30 | -17.54812 | -149.51273 | 3101 ft | 112 kts | 46° |
| 2026-04-30 20:30 | -17.53123 | -149.49426 | 3111 ft | 120 kts | 55° |
| 2026-04-30 20:31 | -17.51781 | -149.47191 | 3120 ft | 120 kts | 66° |
| 2026-04-30 20:32 | -17.49791 | -149.46309 | 2743 ft | 139 kts | 329° |
| 2026-04-30 20:32 | -17.48134 | -149.47025 | 2686 ft | 128 kts | 355° |
| 2026-04-30 20:33 | -17.47248 | -149.47218 | 2558 ft | 133 kts | 359° |
| 2026-04-30 20:33 | -17.45414 | -149.47229 | 2503 ft | 129 kts | 14° |
| 2026-04-30 20:33 | -17.44480 | -149.47098 | 2309 ft | 141 kts | 8° |
| 2026-04-30 20:34 | -17.42695 | -149.47952 | 2164 ft | 142 kts | 335° |
| 2026-04-30 20:34 | -17.40982 | -149.48886 | 2205 ft | 136 kts | 347° |
| 2026-04-30 20:35 | -17.40086 | -149.49202 | 2232 ft | 134 kts | 353° |
| 2026-04-30 20:35 | -17.39176 | -149.49419 | 2259 ft | 134 kts | 356° |
| 2026-04-30 20:35 | -17.37381 | -149.50081 | 2287 ft | 133 kts | 357° |
| 2026-04-30 20:36 | -17.36475 | -149.50276 | 2312 ft | 134 kts | 357° |
| 2026-04-30 20:36 | -17.35552 | -149.50503 | 2335 ft | 134 kts | 355° |
| 2026-04-30 20:36 | -17.33728 | -149.50957 | 2386 ft | 134 kts | 355° |
| 2026-04-30 20:37 | -17.32814 | -149.51184 | 2411 ft | 134 kts | 355° |
| 2026-04-30 20:37 | -17.31901 | -149.51411 | 2436 ft | 134 kts | 355° |
| 2026-04-30 20:37 | -17.30992 | -149.51639 | 2463 ft | 134 kts | 356° |
| 2026-04-30 20:37 | -17.30084 | -149.51865 | 2488 ft | 134 kts | 355° |
| 2026-04-30 20:38 | -17.29181 | -149.52086 | 2516 ft | 134 kts | 356° |
| 2026-04-30 20:38 | -17.28270 | -149.52313 | 2543 ft | 133 kts | 355° |
| 2026-04-30 20:38 | -17.27356 | -149.52542 | 2572 ft | 134 kts | 355° |
| 2026-04-30 20:39 | -17.25538 | -149.52991 | 2627 ft | 133 kts | 355° |
| 2026-04-30 20:39 | -17.24631 | -149.53218 | 2658 ft | 133 kts | 355° |
| 2026-04-30 20:39 | -17.23733 | -149.53438 | 2691 ft | 133 kts | 355° |
| 2026-04-30 20:40 | -17.21911 | -149.53889 | 2752 ft | 133 kts | 355° |
| 2026-04-30 20:40 | -17.21004 | -149.54112 | 2781 ft | 133 kts | 355° |
| 2026-04-30 20:40 | -17.20101 | -149.54340 | 2813 ft | 133 kts | 356° |
| 2026-04-30 20:41 | -17.18281 | -149.54790 | 2873 ft | 133 kts | 355° |
| 2026-04-30 20:41 | -17.17373 | -149.55016 | 2905 ft | 133 kts | 356° |
| 2026-04-30 20:41 | -17.16476 | -149.55238 | 2939 ft | 133 kts | 356° |
| 2026-04-30 20:41 | -17.15565 | -149.55461 | 2969 ft | 133 kts | 355° |
| 2026-04-30 20:42 | -17.14656 | -149.55685 | 3002 ft | 133 kts | 356° |
| 2026-04-30 20:42 | -17.13750 | -149.55911 | 3032 ft | 133 kts | 356° |
| 2026-04-30 20:42 | -17.11947 | -149.56360 | 3096 ft | 133 kts | 356° |
| 2026-04-30 20:43 | -17.11041 | -149.56583 | 3129 ft | 132 kts | 356° |
| 2026-04-30 20:43 | -17.10143 | -149.56802 | 3162 ft | 133 kts | 356° |
| 2026-04-30 20:43 | -17.09235 | -149.57031 | 3194 ft | 132 kts | 355° |
| 2026-04-30 20:44 | -17.07431 | -149.57477 | 3263 ft | 132 kts | 355° |
| 2026-04-30 20:44 | -17.06531 | -149.57698 | 3297 ft | 132 kts | 356° |
| 2026-04-30 20:44 | -17.04729 | -149.58147 | 3367 ft | 132 kts | 356° |
| 2026-04-30 20:45 | -17.02937 | -149.58589 | 3436 ft | 132 kts | 356° |
| 2026-04-30 20:45 | -17.02022 | -149.58812 | 3471 ft | 133 kts | 356° |
| 2026-04-30 20:45 | -17.01128 | -149.59036 | 3504 ft | 133 kts | 356° |
| 2026-04-30 20:46 | -16.98422 | -149.59705 | 3609 ft | 133 kts | 356° |
| 2026-04-30 20:46 | -16.97510 | -149.59929 | 3645 ft | 133 kts | 356° |
| 2026-04-30 20:47 | -16.96034 | -149.61003 | 3398 ft | 152 kts | 283° |
| 2026-04-30 20:47 | -16.96374 | -149.62032 | 3181 ft | 156 kts | 224° |
| 2026-04-30 20:48 | -16.98284 | -149.61986 | 2698 ft | 140 kts | 148° |
| 2026-04-30 20:48 | -16.99121 | -149.61504 | 2432 ft | 136 kts | 142° |
| 2026-04-30 20:48 | -16.99888 | -149.60944 | 2102 ft | 133 kts | 131° |
| 2026-04-30 20:48 | -17.00540 | -149.60277 | 1658 ft | 131 kts | 123° |
| 2026-04-30 20:49 | -17.01123 | -149.59557 | 1148 ft | 131 kts | 119° |
| 2026-04-30 20:49 | -17.01667 | -149.58798 | 650 ft | 131 kts | 117° |
| 2026-04-30 20:49 | -17.01853 | -149.58005 | 482 ft | 100 kts | 76° |
| 2026-04-30 20:50 | -17.01227 | -149.58008 | 415 ft | 88 kts | 251° |
| 2026-04-30 20:50 | -17.01444 | -149.58560 | 267 ft | 72 kts | 222° |
| 2026-04-30 20:50 | -17.01757 | -149.58499 | 275 ft | 42 kts | 81° |
| 2026-04-30 20:50 | -17.01517 | -149.58443 | 173 ft | 46 kts | 335° |
| 2026-04-30 20:51 | -17.01445 | -149.58760 | 39 ft | 31 kts | 261° |
| 2026-04-30 20:51 | -17.01396 | -149.58572 | 229 ft | 29 kts | 330° |
| 2026-04-30 20:51 | -17.01492 | -149.58910 | 82 ft | 60 kts | 248° |
| 2026-04-30 20:52 | -17.01545 | -149.59116 | 23 ft | 2 kts | 233° |
| 2026-04-30 20:52 | -17.01544 | -149.59119 | 28 ft | 9 kts | 78° |
| 2026-04-30 20:52 | -17.01500 | -149.58900 | 32 ft | 7 kts | 121° |
| 2026-04-30 20:53 | -17.01529 | -149.58882 | 12 ft | 3 kts | 173° |
| 2026-04-30 20:53 | -17.01559 | -149.58885 | 14 ft | 6 kts | 267° |
| 2026-04-30 20:53 | -17.01565 | -149.58896 | 9 ft | 1 kts | 260° |